createdAt,value
2023-02-08T00:00:28.621Z,16.08
2023-02-08T00:03:30.800Z,15.05
2023-02-08T00:06:32.950Z,16.92
2023-02-08T00:09:35.139Z,15.07
2023-02-08T00:12:38.399Z,14.77
2023-02-08T00:15:46.168Z,14.95
2023-02-08T00:18:48.360Z,14.45
2023-02-08T00:21:50.569Z,14.40
2023-02-08T00:24:52.651Z,14.27
2023-02-08T00:27:54.821Z,13.50
2023-02-08T00:30:57.354Z,14.48
2023-02-08T00:33:59.606Z,14.15
2023-02-08T00:37:01.819Z,13.85
2023-02-08T00:40:06.057Z,13.45
2023-02-08T00:43:08.252Z,14.10
2023-02-08T00:46:10.445Z,13.13
2023-02-08T00:49:12.614Z,13.95
2023-02-08T00:52:14.777Z,14.75
2023-02-08T00:55:17.074Z,13.85
2023-02-08T00:58:19.243Z,13.50
2023-02-08T01:01:21.382Z,13.48
2023-02-08T01:04:23.513Z,13.80
2023-02-08T01:07:25.733Z,14.05
2023-02-08T01:10:27.824Z,14.38
2023-02-08T01:13:30.184Z,14.10
2023-02-08T01:16:34.072Z,15.20
2023-02-08T01:19:36.281Z,14.35
2023-02-08T01:22:38.748Z,14.98
2023-02-08T01:25:41.994Z,15.10
2023-02-08T01:28:44.856Z,15.38
2023-02-08T01:31:47.086Z,15.45
2023-02-08T01:34:49.279Z,14.52
2023-02-08T01:37:51.383Z,15.20
2023-02-08T01:40:54.233Z,15.63
2023-02-08T01:44:01.079Z,14.90
2023-02-08T01:47:03.906Z,14.55
2023-02-08T01:50:06.839Z,14.75
2023-02-08T01:53:09.875Z,14.23
2023-02-08T01:56:22.868Z,13.85
2023-02-08T01:59:33.180Z,14.27
2023-02-08T02:05:49.451Z,12.60
2023-02-08T02:09:05.021Z,15.07
2023-02-08T02:12:08.887Z,13.55
2023-02-08T02:15:11.766Z,13.82
2023-02-08T02:18:28.529Z,13.52
2023-02-08T02:21:33.463Z,14.48
2023-02-08T02:24:57.406Z,14.48
2023-02-08T02:28:12.609Z,14.65
2023-02-08T02:31:52.250Z,12.77
2023-02-08T02:35:15.620Z,12.18
2023-02-08T02:38:51.210Z,12.02
2023-02-08T02:42:36.181Z,13.85
2023-02-08T02:45:57.059Z,12.13
2023-02-08T02:49:18.350Z,12.38
2023-02-08T02:52:33.732Z,12.18
2023-02-08T02:55:43.942Z,12.63
2023-02-08T02:58:46.364Z,11.45
2023-02-08T03:01:48.936Z,12.40
2023-02-08T03:04:54.435Z,12.52
2023-02-08T03:08:23.009Z,11.57
2023-02-08T03:11:32.829Z,11.43
2023-02-08T03:14:39.528Z,12.30
2023-02-08T03:18:30.635Z,13.00
2023-02-08T03:22:06.438Z,11.73
2023-02-08T03:25:14.300Z,9.43
2023-02-08T03:28:37.745Z,10.52
2023-02-08T03:31:54.265Z,9.73
2023-02-08T03:35:10.542Z,11.40
2023-02-08T03:38:27.636Z,11.05
2023-02-08T03:41:34.326Z,9.82
2023-02-08T03:44:45.082Z,9.82
2023-02-08T03:47:51.105Z,9.15
2023-02-08T03:50:56.949Z,9.82
2023-02-08T03:54:02.658Z,10.07
2023-02-08T03:57:10.310Z,10.63
2023-02-08T04:00:16.145Z,9.98
2023-02-08T04:03:24.407Z,10.10
2023-02-08T04:06:26.855Z,9.50
2023-02-08T04:09:29.222Z,9.18
2023-02-08T04:12:31.517Z,9.07
2023-02-08T04:15:33.972Z,9.50
2023-02-08T04:18:36.096Z,7.97
2023-02-08T04:21:38.957Z,8.32
2023-02-08T04:24:41.210Z,8.68
2023-02-08T04:27:43.482Z,9.43
2023-02-08T04:30:45.728Z,9.20
2023-02-08T04:33:47.869Z,9.00
2023-02-08T04:36:50.120Z,8.75
2023-02-08T04:39:52.364Z,9.20
2023-02-08T04:42:54.633Z,8.68
2023-02-08T04:45:56.811Z,8.70
2023-02-08T04:48:59.206Z,8.95
2023-02-08T04:52:01.429Z,8.68
2023-02-08T04:55:03.592Z,8.43
2023-02-08T04:58:05.823Z,8.40
2023-02-08T05:01:10.877Z,7.38
2023-02-08T05:04:13.126Z,8.07
2023-02-08T05:07:15.436Z,8.65
2023-02-08T05:10:18.245Z,8.27
2023-02-08T05:13:20.449Z,8.88
2023-02-08T05:16:22.827Z,8.35
2023-02-08T05:19:25.168Z,7.97
2023-02-08T05:22:27.370Z,8.70
2023-02-08T05:25:29.632Z,8.00
2023-02-08T05:28:31.841Z,8.35
2023-02-08T05:31:34.208Z,8.52
2023-02-08T05:34:37.916Z,7.22
2023-02-08T05:37:40.080Z,8.10
2023-02-08T05:40:42.572Z,7.80
2023-02-08T05:43:46.112Z,7.70
2023-02-08T05:46:48.547Z,8.35
2023-02-08T05:49:50.673Z,8.52
2023-02-08T05:52:52.809Z,8.48
2023-02-08T05:55:54.930Z,8.30
2023-02-08T05:58:57.270Z,8.88
2023-02-08T06:01:59.508Z,8.40
2023-02-08T06:05:01.656Z,7.28
2023-02-08T06:08:04.095Z,8.57
2023-02-08T06:11:06.945Z,8.35
2023-02-08T06:14:09.422Z,7.85
2023-02-08T06:17:11.650Z,7.95
2023-02-08T06:20:14.093Z,9.75
2023-02-08T06:23:16.199Z,7.72
2023-02-08T06:26:18.393Z,7.38
2023-02-08T06:29:20.641Z,8.02
2023-02-08T06:32:23.087Z,9.00
2023-02-08T06:35:25.238Z,8.15
2023-02-08T06:38:27.546Z,8.63
2023-02-08T06:41:29.782Z,9.13
2023-02-08T06:44:32.006Z,9.05
2023-02-08T06:47:34.082Z,8.75
2023-02-08T06:50:38.143Z,8.57
2023-02-08T06:53:40.534Z,8.50
2023-02-08T06:56:43.328Z,8.75
2023-02-08T06:59:46.171Z,8.23
2023-02-08T07:02:48.393Z,7.85
2023-02-08T07:06:04.077Z,8.43
2023-02-08T07:09:07.060Z,8.95
2023-02-08T07:12:10.106Z,8.55
2023-02-08T07:15:13.780Z,9.25
2023-02-08T07:18:15.964Z,10.15
2023-02-08T07:21:18.053Z,9.90
2023-02-08T07:24:20.327Z,10.80
2023-02-08T07:27:24.483Z,9.05
2023-02-08T07:30:27.849Z,9.32
2023-02-08T07:33:30.074Z,9.18
2023-02-08T07:36:32.416Z,8.70
2023-02-08T07:39:34.649Z,9.27
2023-02-08T07:42:36.804Z,8.80
2023-02-08T07:45:50.695Z,8.65
2023-02-08T07:48:53.530Z,8.90
2023-02-08T07:51:55.793Z,9.57
2023-02-08T07:54:58.025Z,9.00
2023-02-08T07:58:00.163Z,8.63
2023-02-08T08:01:12.590Z,8.95
2023-02-08T08:04:23.538Z,8.13
2023-02-08T08:07:25.713Z,8.52
2023-02-08T08:10:27.991Z,8.68
2023-02-08T08:13:30.194Z,9.02
2023-02-08T08:16:32.362Z,8.48
2023-02-08T08:19:34.632Z,7.80
2023-02-08T08:22:36.939Z,7.93
2023-02-08T08:25:39.199Z,7.15
2023-02-08T08:28:42.247Z,8.65
2023-02-08T08:31:44.772Z,10.00
2023-02-08T08:34:46.934Z,8.82
2023-02-08T08:37:49.020Z,9.20
2023-02-08T08:40:51.176Z,8.38
2023-02-08T08:43:53.845Z,8.63
2023-02-08T08:46:59.837Z,9.48
2023-02-08T08:50:02.190Z,7.68
2023-02-08T08:53:04.624Z,8.60
2023-02-08T08:56:07.161Z,8.75
2023-02-08T08:59:09.324Z,8.20
2023-02-08T09:02:15.562Z,7.88
2023-02-08T09:05:17.769Z,9.15
2023-02-08T09:08:20.086Z,8.32
2023-02-08T09:11:22.388Z,8.60
2023-02-08T09:14:24.594Z,8.75
2023-02-08T09:17:26.802Z,8.50
2023-02-08T09:20:28.946Z,8.43
2023-02-08T09:23:31.113Z,9.10
2023-02-08T09:26:34.007Z,9.95
2023-02-08T09:29:36.309Z,9.20
2023-02-08T09:32:39.991Z,8.85
2023-02-08T09:35:42.489Z,8.95
2023-02-08T09:38:45.725Z,9.40
2023-02-08T09:42:11.877Z,9.75
2023-02-08T09:45:20.008Z,8.88
2023-02-08T09:48:36.229Z,9.60
2023-02-08T09:51:43.366Z,9.50
2023-02-08T09:55:00.026Z,9.60
2023-02-08T09:58:08.265Z,8.57
2023-02-08T10:01:31.467Z,9.57
2023-02-08T10:04:41.211Z,9.70
2023-02-08T10:07:43.786Z,9.32
2023-02-08T10:10:56.274Z,9.48
2023-02-08T10:14:17.194Z,9.90
2023-02-08T10:17:51.085Z,8.23
2023-02-08T10:21:21.717Z,9.27
2023-02-08T10:25:00.516Z,8.45
2023-02-08T10:28:08.544Z,9.70
2023-02-08T10:31:30.695Z,8.93
2023-02-08T10:34:41.725Z,9.48
2023-02-08T10:37:46.450Z,9.38
2023-02-08T10:40:52.534Z,9.40
2023-02-08T10:44:04.792Z,9.32
2023-02-08T10:47:32.738Z,10.77
2023-02-08T10:50:43.284Z,9.65
2023-02-08T10:53:46.018Z,8.80
2023-02-08T10:56:57.665Z,9.82
2023-02-08T11:00:06.184Z,9.95
2023-02-08T11:03:27.750Z,9.23
2023-02-08T11:06:29.912Z,10.10
2023-02-08T11:09:32.566Z,10.13
2023-02-08T11:12:35.117Z,9.23
2023-02-08T11:15:47.225Z,9.45
2023-02-08T11:18:50.900Z,9.80
2023-02-08T11:21:53.615Z,10.00
2023-02-08T11:25:00.174Z,9.93
2023-02-08T11:28:02.867Z,9.38
2023-02-08T11:31:20.809Z,9.32
2023-02-08T11:34:38.907Z,9.52
2023-02-08T11:37:51.553Z,9.55
2023-02-08T11:41:00.029Z,9.68
2023-02-08T11:44:07.150Z,10.05
2023-02-08T11:47:13.225Z,10.50
2023-02-08T11:50:36.823Z,9.80
2023-02-08T11:53:48.429Z,9.13
2023-02-08T11:57:02.991Z,10.48
2023-02-08T12:00:21.032Z,10.02
2023-02-08T12:03:29.288Z,9.20
2023-02-08T12:06:46.569Z,9.90
2023-02-08T12:10:16.597Z,9.50
2023-02-08T12:13:26.189Z,9.63
2023-02-08T12:16:36.222Z,10.02
2023-02-08T12:20:09.001Z,10.48
2023-02-08T12:23:35.973Z,8.80
2023-02-08T12:26:43.912Z,9.98
2023-02-08T12:29:56.311Z,9.45
2023-02-08T12:32:58.663Z,10.07
2023-02-08T12:36:35.875Z,9.60
2023-02-08T12:40:16.847Z,10.73
2023-02-08T12:43:46.995Z,10.90
2023-02-08T12:50:53.781Z,9.05
2023-02-08T12:54:01.153Z,8.77
2023-02-08T12:57:05.755Z,10.50
2023-02-08T13:00:26.374Z,9.65
2023-02-08T13:03:56.391Z,9.75
2023-02-08T13:07:11.347Z,8.38
2023-02-08T13:10:28.632Z,9.77
2023-02-08T13:13:36.093Z,11.20
2023-02-08T13:16:52.448Z,9.63
2023-02-08T13:20:03.867Z,10.38
2023-02-08T13:23:25.934Z,10.07
2023-02-08T13:26:34.527Z,10.05
2023-02-08T13:29:38.037Z,9.32
2023-02-08T13:32:44.470Z,9.40
2023-02-08T13:35:53.140Z,8.88
2023-02-08T13:38:58.123Z,9.32
2023-02-08T13:42:01.851Z,10.07
2023-02-08T13:45:06.242Z,9.45
2023-02-08T13:48:11.665Z,8.43
2023-02-08T13:51:33.947Z,9.52
2023-02-08T13:54:37.358Z,9.95
2023-02-08T13:57:54.185Z,9.75
2023-02-08T14:01:01.193Z,9.55
2023-02-08T14:04:10.022Z,8.77
2023-02-08T14:07:12.133Z,9.15
2023-02-08T14:10:40.929Z,9.50
2023-02-08T14:13:48.398Z,9.65
2023-02-08T14:17:09.977Z,8.45
2023-02-08T14:20:40.136Z,9.38
2023-02-08T14:23:42.455Z,8.98
2023-02-08T14:26:45.591Z,10.18
2023-02-08T14:30:01.420Z,9.73
2023-02-08T14:33:03.425Z,10.30
2023-02-08T14:36:37.028Z,10.18
2023-02-08T14:39:39.224Z,9.55
2023-02-08T14:42:53.587Z,11.07
2023-02-08T14:45:56.591Z,10.35
2023-02-08T14:49:00.476Z,11.45
2023-02-08T14:52:20.201Z,9.85
2023-02-08T14:55:27.724Z,10.15
2023-02-08T14:58:34.511Z,10.57
2023-02-08T15:01:50.091Z,10.82
2023-02-08T15:04:52.826Z,9.60
2023-02-08T15:07:59.614Z,10.88
2023-02-08T15:11:01.929Z,9.52
2023-02-08T15:14:06.038Z,11.63
2023-02-08T15:17:21.728Z,10.75
2023-02-08T15:20:29.576Z,11.00
2023-02-08T15:23:32.162Z,11.15
2023-02-08T15:26:35.013Z,10.75
2023-02-08T15:29:44.599Z,10.40
2023-02-08T15:32:47.105Z,11.15
2023-02-08T15:36:21.408Z,11.02
2023-02-08T15:39:29.284Z,11.23
2023-02-08T15:42:34.025Z,10.73
2023-02-08T15:45:36.348Z,11.05
2023-02-08T15:48:41.573Z,11.13
2023-02-08T15:51:48.099Z,11.23
2023-02-08T15:54:51.067Z,10.95
2023-02-08T15:58:06.361Z,9.50
2023-02-08T16:01:15.222Z,10.32
2023-02-08T16:04:17.617Z,11.43
2023-02-08T16:07:43.587Z,11.35
2023-02-08T16:10:49.019Z,10.48
2023-02-08T16:13:53.977Z,11.50
2023-02-08T16:16:58.292Z,11.32
2023-02-08T16:20:00.617Z,10.43
2023-02-08T16:23:21.644Z,11.35
2023-02-08T16:26:35.682Z,11.82
2023-02-08T16:29:39.812Z,10.85
2023-02-08T16:32:42.054Z,12.15
2023-02-08T16:35:44.270Z,12.57
2023-02-08T16:39:16.318Z,11.68
2023-02-08T16:42:33.831Z,12.05
2023-02-08T16:45:35.893Z,11.05
2023-02-08T16:48:38.029Z,12.77
2023-02-08T16:51:43.451Z,12.88
2023-02-08T16:54:45.786Z,10.15
2023-02-08T16:57:51.356Z,11.85
2023-02-08T17:00:53.830Z,13.60
2023-02-08T17:03:57.221Z,12.93
2023-02-08T17:07:00.146Z,12.93
2023-02-08T17:10:02.855Z,12.40
2023-02-08T17:13:19.989Z,12.38
2023-02-08T17:16:26.029Z,13.10
2023-02-08T17:19:28.286Z,13.60
2023-02-08T17:22:30.544Z,12.15
2023-02-08T17:25:34.114Z,11.73
2023-02-08T17:28:38.644Z,13.55
2023-02-08T17:31:41.418Z,12.90
2023-02-08T17:34:43.662Z,14.23
2023-02-08T17:37:50.537Z,12.50
2023-02-08T17:40:52.644Z,13.63
2023-02-08T17:43:56.213Z,12.52
2023-02-08T17:46:58.347Z,13.40
2023-02-08T17:50:00.559Z,11.98
2023-02-08T17:53:04.151Z,10.88
2023-02-08T17:56:09.764Z,10.73
2023-02-08T17:59:12.307Z,10.10
2023-02-08T18:02:14.740Z,8.63
2023-02-08T18:05:19.494Z,9.13
2023-02-08T18:08:21.654Z,7.85
2023-02-08T18:11:24.285Z,8.43
2023-02-08T18:14:26.594Z,8.18
2023-02-08T18:17:28.786Z,8.68
2023-02-08T18:20:30.946Z,8.77
2023-02-08T18:23:33.175Z,9.35
2023-02-08T18:26:35.554Z,8.95
2023-02-08T18:29:37.760Z,8.77
2023-02-08T18:32:40.031Z,8.27
2023-02-08T18:35:48.490Z,9.88
2023-02-08T18:38:52.891Z,9.75
2023-02-08T18:41:55.095Z,8.60
2023-02-08T18:44:57.242Z,8.90
2023-02-08T18:47:59.851Z,9.05
2023-02-08T18:51:05.084Z,8.70
2023-02-08T18:54:07.306Z,7.47
2023-02-08T18:57:12.756Z,8.43
2023-02-08T19:00:15.943Z,9.50
2023-02-08T19:03:20.068Z,8.60
2023-02-08T19:06:25.108Z,8.23
2023-02-08T19:09:27.309Z,8.40
2023-02-08T19:12:29.940Z,7.57
2023-02-08T19:15:32.199Z,8.40
2023-02-08T19:18:34.629Z,7.65
2023-02-08T19:21:37.034Z,8.05
2023-02-08T19:24:39.277Z,7.75
2023-02-08T19:27:41.436Z,8.40
2023-02-08T19:30:43.646Z,7.95
2023-02-08T19:33:48.012Z,8.30
2023-02-08T19:36:52.293Z,7.40
2023-02-08T19:39:54.490Z,6.53
2023-02-08T19:42:56.623Z,7.28
2023-02-08T19:45:59.561Z,6.65
2023-02-08T19:49:02.178Z,7.28
2023-02-08T19:52:04.398Z,6.93
2023-02-08T19:55:06.757Z,6.57
2023-02-08T19:58:10.747Z,6.13
2023-02-08T20:01:19.124Z,7.07
2023-02-08T20:04:22.425Z,5.97
2023-02-08T20:07:25.980Z,6.10
2023-02-08T20:10:28.209Z,5.57
2023-02-08T20:13:30.385Z,5.95
2023-02-08T20:16:33.953Z,5.95
2023-02-08T20:19:37.425Z,6.15
2023-02-08T20:22:39.582Z,5.85
2023-02-08T20:25:41.972Z,5.25
2023-02-08T20:28:48.052Z,5.95
2023-02-08T20:31:55.660Z,5.15
2023-02-08T20:34:59.715Z,5.57
2023-02-08T20:38:02.198Z,5.57
2023-02-08T20:41:10.951Z,5.10
2023-02-08T20:44:14.857Z,5.18
2023-02-08T20:47:21.833Z,5.00
2023-02-08T20:50:24.039Z,4.93
2023-02-08T20:53:26.210Z,5.07
2023-02-08T20:56:31.887Z,5.00
2023-02-08T20:59:35.088Z,4.97
2023-02-08T21:02:37.312Z,4.65
2023-02-08T21:05:39.459Z,4.95
2023-02-08T21:08:42.607Z,5.10
2023-02-08T21:11:45.857Z,4.75
2023-02-08T21:14:48.173Z,4.47
2023-02-08T21:17:50.326Z,4.72
2023-02-08T21:20:52.532Z,4.40
2023-02-08T21:23:56.804Z,4.47
2023-02-08T21:26:59.163Z,4.75
2023-02-08T21:30:01.370Z,4.50
2023-02-08T21:33:03.865Z,5.15
2023-02-08T21:36:10.514Z,4.55
2023-02-08T21:39:12.763Z,5.30
2023-02-08T21:42:14.968Z,4.03
2023-02-08T21:45:17.217Z,4.75
2023-02-08T21:48:19.386Z,4.40
2023-02-08T21:51:41.899Z,4.90
2023-02-08T21:54:45.814Z,4.80
2023-02-08T21:57:48.932Z,5.32
2023-02-08T22:00:51.634Z,4.90
2023-02-08T22:03:53.856Z,4.80
2023-02-08T22:06:56.031Z,4.75
2023-02-08T22:09:58.155Z,4.60
2023-02-08T22:13:00.552Z,4.88
2023-02-08T22:16:07.910Z,4.72
2023-02-08T22:19:10.176Z,5.00
2023-02-08T22:22:12.575Z,4.65
2023-02-08T22:25:15.108Z,4.60
2023-02-08T22:28:17.416Z,4.53
2023-02-08T22:31:20.077Z,4.72
2023-02-08T22:34:22.339Z,5.20
2023-02-08T22:37:24.800Z,5.13
2023-02-08T22:40:27.031Z,4.82
2023-02-08T22:43:29.807Z,5.10
2023-02-08T22:46:32.055Z,6.15
2023-02-08T22:49:35.127Z,5.40
2023-02-08T22:52:37.383Z,5.20
2023-02-08T22:55:39.614Z,5.20
2023-02-08T22:58:41.916Z,4.70
2023-02-08T23:01:44.402Z,5.00
2023-02-08T23:04:46.701Z,5.13
2023-02-08T23:07:48.952Z,5.03
2023-02-08T23:10:59.820Z,5.35
2023-02-08T23:14:01.991Z,4.80
2023-02-08T23:17:04.228Z,5.13
2023-02-08T23:20:07.160Z,5.55
2023-02-08T23:23:09.442Z,5.82
2023-02-08T23:26:14.832Z,5.20
2023-02-08T23:29:17.061Z,5.07
2023-02-08T23:32:19.258Z,5.30
2023-02-08T23:35:21.653Z,5.82
2023-02-08T23:38:24.056Z,5.40
2023-02-08T23:41:26.403Z,5.05
2023-02-08T23:44:28.725Z,5.28
2023-02-08T23:47:31.576Z,5.10
2023-02-08T23:50:33.997Z,4.70
2023-02-08T23:53:37.282Z,5.57
2023-02-08T23:56:40.872Z,5.07
2023-02-08T23:59:43.092Z,5.40
